sensor_id;sensor_type;location;lat;lon;timestamp;P1;durP1;ratioP1;P2;durP2;ratioP2
22648;SDS011;11491;41.942;24.220;2023-08-07T00:01:01;1.75;;;1.20;;
22648;SDS011;11491;41.942;24.220;2023-08-07T00:03:29;1.88;;;1.30;;
22648;SDS011;11491;41.942;24.220;2023-08-07T00:05:56;2.63;;;1.70;;
22648;SDS011;11491;41.942;24.220;2023-08-07T00:08:22;3.15;;;1.08;;
22648;SDS011;11491;41.942;24.220;2023-08-07T00:10:49;2.13;;;1.48;;
22648;SDS011;11491;41.942;24.220;2023-08-07T00:13:16;1.23;;;0.90;;
22648;SDS011;11491;41.942;24.220;2023-08-07T00:15:43;4.13;;;1.30;;
22648;SDS011;11491;41.942;24.220;2023-08-07T00:18:10;2.88;;;1.50;;
22648;SDS011;11491;41.942;24.220;2023-08-07T00:20:38;3.08;;;1.30;;
22648;SDS011;11491;41.942;24.220;2023-08-07T00:23:05;1.58;;;1.13;;
22648;SDS011;11491;41.942;24.220;2023-08-07T00:25:32;2.30;;;1.20;;
22648;SDS011;11491;41.942;24.220;2023-08-07T00:28:00;3.40;;;1.25;;
22648;SDS011;11491;41.942;24.220;2023-08-07T00:30:27;1.40;;;1.02;;
22648;SDS011;11491;41.942;24.220;2023-08-07T00:32:56;1.50;;;1.40;;
22648;SDS011;11491;41.942;24.220;2023-08-07T00:35:23;2.58;;;1.50;;
22648;SDS011;11491;41.942;24.220;2023-08-07T00:37:51;4.60;;;1.38;;
22648;SDS011;11491;41.942;24.220;2023-08-07T00:40:18;2.90;;;1.55;;
22648;SDS011;11491;41.942;24.220;2023-08-07T00:42:45;4.07;;;1.50;;
22648;SDS011;11491;41.942;24.220;2023-08-07T00:45:12;1.90;;;1.40;;
22648;SDS011;11491;41.942;24.220;2023-08-07T00:47:38;6.20;;;1.70;;
22648;SDS011;11491;41.942;24.220;2023-08-07T00:50:05;1.90;;;1.17;;
22648;SDS011;11491;41.942;24.220;2023-08-07T00:52:33;1.88;;;1.17;;
22648;SDS011;11491;41.942;24.220;2023-08-07T00:55:02;2.60;;;1.67;;
22648;SDS011;11491;41.942;24.220;2023-08-07T00:57:30;2.03;;;1.30;;
22648;SDS011;11491;41.942;24.220;2023-08-07T00:59:57;2.88;;;1.20;;
22648;SDS011;11491;41.942;24.220;2023-08-07T01:02:25;3.20;;;1.30;;
22648;SDS011;11491;41.942;24.220;2023-08-07T01:04:52;1.60;;;1.30;;
22648;SDS011;11491;41.942;24.220;2023-08-07T01:07:19;3.08;;;1.20;;
22648;SDS011;11491;41.942;24.220;2023-08-07T01:09:46;1.80;;;1.38;;
22648;SDS011;11491;41.942;24.220;2023-08-07T01:12:15;5.75;;;1.52;;
22648;SDS011;11491;41.942;24.220;2023-08-07T01:14:49;2.20;;;1.20;;
22648;SDS011;11491;41.942;24.220;2023-08-07T01:17:21;2.13;;;1.40;;
22648;SDS011;11491;41.942;24.220;2023-08-07T01:19:49;2.10;;;1.42;;
22648;SDS011;11491;41.942;24.220;2023-08-07T01:22:19;4.07;;;1.58;;
22648;SDS011;11491;41.942;24.220;2023-08-07T01:24:46;1.30;;;1.20;;
22648;SDS011;11491;41.942;24.220;2023-08-07T01:27:30;3.85;;;1.80;;
22648;SDS011;11491;41.942;24.220;2023-08-07T01:30:06;2.15;;;1.50;;
22648;SDS011;11491;41.942;24.220;2023-08-07T01:32:42;2.10;;;1.70;;
22648;SDS011;11491;41.942;24.220;2023-08-07T01:35:22;3.53;;;1.50;;
22648;SDS011;11491;41.942;24.220;2023-08-07T01:37:56;2.17;;;1.30;;
22648;SDS011;11491;41.942;24.220;2023-08-07T01:40:24;5.82;;;1.65;;
22648;SDS011;11491;41.942;24.220;2023-08-07T01:42:50;3.10;;;1.83;;
22648;SDS011;11491;41.942;24.220;2023-08-07T01:45:22;3.47;;;2.00;;
22648;SDS011;11491;41.942;24.220;2023-08-07T01:47:49;2.88;;;1.70;;
22648;SDS011;11491;41.942;24.220;2023-08-07T01:50:17;3.17;;;1.77;;
22648;SDS011;11491;41.942;24.220;2023-08-07T01:52:44;2.83;;;1.50;;
22648;SDS011;11491;41.942;24.220;2023-08-07T01:55:12;1.50;;;1.30;;
22648;SDS011;11491;41.942;24.220;2023-08-07T01:57:39;1.85;;;1.40;;
22648;SDS011;11491;41.942;24.220;2023-08-07T02:00:06;3.15;;;1.70;;
22648;SDS011;11491;41.942;24.220;2023-08-07T02:02:34;2.55;;;1.85;;
22648;SDS011;11491;41.942;24.220;2023-08-07T02:05:01;1.95;;;1.58;;
22648;SDS011;11491;41.942;24.220;2023-08-07T02:07:28;2.60;;;1.50;;
22648;SDS011;11491;41.942;24.220;2023-08-07T02:09:54;3.20;;;1.60;;
22648;SDS011;11491;41.942;24.220;2023-08-07T02:12:22;1.73;;;1.33;;
22648;SDS011;11491;41.942;24.220;2023-08-07T02:14:49;1.90;;;1.33;;
22648;SDS011;11491;41.942;24.220;2023-08-07T02:17:16;3.05;;;1.70;;
22648;SDS011;11491;41.942;24.220;2023-08-07T02:19:43;2.78;;;1.52;;
22648;SDS011;11491;41.942;24.220;2023-08-07T02:22:09;1.80;;;1.40;;
22648;SDS011;11491;41.942;24.220;2023-08-07T02:24:36;1.67;;;1.50;;
22648;SDS011;11491;41.942;24.220;2023-08-07T02:27:03;4.93;;;1.52;;
22648;SDS011;11491;41.942;24.220;2023-08-07T02:29:31;6.57;;;1.45;;
22648;SDS011;11491;41.942;24.220;2023-08-07T02:31:59;2.28;;;1.48;;
22648;SDS011;11491;41.942;24.220;2023-08-07T02:34:26;1.98;;;1.50;;
22648;SDS011;11491;41.942;24.220;2023-08-07T02:36:53;3.53;;;1.40;;
22648;SDS011;11491;41.942;24.220;2023-08-07T02:39:21;2.60;;;1.50;;
22648;SDS011;11491;41.942;24.220;2023-08-07T02:41:49;2.13;;;1.23;;
22648;SDS011;11491;41.942;24.220;2023-08-07T02:44:15;1.70;;;1.40;;
22648;SDS011;11491;41.942;24.220;2023-08-07T02:46:44;2.22;;;1.80;;
22648;SDS011;11491;41.942;24.220;2023-08-07T02:49:11;3.05;;;1.50;;
22648;SDS011;11491;41.942;24.220;2023-08-07T02:51:38;1.80;;;1.50;;
22648;SDS011;11491;41.942;24.220;2023-08-07T02:54:06;2.17;;;1.60;;
22648;SDS011;11491;41.942;24.220;2023-08-07T02:56:33;2.20;;;1.48;;
22648;SDS011;11491;41.942;24.220;2023-08-07T02:58:59;3.47;;;1.58;;
22648;SDS011;11491;41.942;24.220;2023-08-07T03:01:26;2.72;;;1.30;;
22648;SDS011;11491;41.942;24.220;2023-08-07T03:03:55;2.22;;;1.50;;
22648;SDS011;11491;41.942;24.220;2023-08-07T03:06:22;3.25;;;1.50;;
22648;SDS011;11491;41.942;24.220;2023-08-07T03:08:49;1.92;;;1.52;;
22648;SDS011;11491;41.942;24.220;2023-08-07T03:11:16;2.53;;;1.50;;
22648;SDS011;11491;41.942;24.220;2023-08-07T03:13:42;3.50;;;1.63;;
22648;SDS011;11491;41.942;24.220;2023-08-07T03:16:09;4.72;;;1.55;;
22648;SDS011;11491;41.942;24.220;2023-08-07T03:18:36;2.85;;;1.58;;
22648;SDS011;11491;41.942;24.220;2023-08-07T03:21:04;1.73;;;1.50;;
22648;SDS011;11491;41.942;24.220;2023-08-07T03:23:31;3.00;;;1.70;;
22648;SDS011;11491;41.942;24.220;2023-08-07T03:26:01;2.30;;;1.60;;
22648;SDS011;11491;41.942;24.220;2023-08-07T03:28:29;3.30;;;2.20;;
22648;SDS011;11491;41.942;24.220;2023-08-07T03:30:56;1.70;;;1.40;;
22648;SDS011;11491;41.942;24.220;2023-08-07T03:33:22;3.35;;;1.40;;
22648;SDS011;11491;41.942;24.220;2023-08-07T03:35:49;2.08;;;1.60;;
22648;SDS011;11491;41.942;24.220;2023-08-07T03:38:17;2.85;;;1.50;;
22648;SDS011;11491;41.942;24.220;2023-08-07T03:40:44;2.38;;;1.55;;
22648;SDS011;11491;41.942;24.220;2023-08-07T03:43:11;1.92;;;1.45;;
22648;SDS011;11491;41.942;24.220;2023-08-07T03:45:38;6.65;;;1.60;;
22648;SDS011;11491;41.942;24.220;2023-08-07T03:48:06;3.53;;;1.60;;
22648;SDS011;11491;41.942;24.220;2023-08-07T03:50:32;3.10;;;1.40;;
22648;SDS011;11491;41.942;24.220;2023-08-07T03:53:02;3.97;;;1.83;;
22648;SDS011;11491;41.942;24.220;2023-08-07T03:55:33;1.85;;;1.60;;
22648;SDS011;11491;41.942;24.220;2023-08-07T03:58:00;2.58;;;1.80;;
22648;SDS011;11491;41.942;24.220;2023-08-07T04:00:26;2.10;;;1.60;;
22648;SDS011;11491;41.942;24.220;2023-08-07T04:02:53;5.35;;;1.90;;
22648;SDS011;11491;41.942;24.220;2023-08-07T04:05:20;2.40;;;1.85;;
22648;SDS011;11491;41.942;24.220;2023-08-07T04:07:46;5.28;;;1.75;;
22648;SDS011;11491;41.942;24.220;2023-08-07T04:10:13;2.10;;;1.90;;
22648;SDS011;11491;41.942;24.220;2023-08-07T04:12:41;5.15;;;1.80;;
22648;SDS011;11491;41.942;24.220;2023-08-07T04:15:09;3.22;;;2.08;;
22648;SDS011;11491;41.942;24.220;2023-08-07T04:17:35;3.55;;;1.85;;
22648;SDS011;11491;41.942;24.220;2023-08-07T04:20:02;4.03;;;2.20;;
22648;SDS011;11491;41.942;24.220;2023-08-07T04:22:30;2.72;;;2.00;;
22648;SDS011;11491;41.942;24.220;2023-08-07T04:24:57;3.95;;;2.17;;
22648;SDS011;11491;41.942;24.220;2023-08-07T04:27:25;2.30;;;1.98;;
22648;SDS011;11491;41.942;24.220;2023-08-07T04:29:56;3.13;;;2.05;;
22648;SDS011;11491;41.942;24.220;2023-08-07T04:32:23;2.22;;;1.77;;
22648;SDS011;11491;41.942;24.220;2023-08-07T04:34:49;3.33;;;2.50;;
22648;SDS011;11491;41.942;24.220;2023-08-07T04:37:16;4.45;;;2.13;;
22648;SDS011;11491;41.942;24.220;2023-08-07T04:39:43;5.45;;;2.92;;
22648;SDS011;11491;41.942;24.220;2023-08-07T04:42:10;4.40;;;3.65;;
22648;SDS011;11491;41.942;24.220;2023-08-07T04:44:37;4.55;;;3.28;;
22648;SDS011;11491;41.942;24.220;2023-08-07T04:47:05;4.97;;;3.30;;
22648;SDS011;11491;41.942;24.220;2023-08-07T04:49:32;5.18;;;2.88;;
22648;SDS011;11491;41.942;24.220;2023-08-07T04:51:59;5.68;;;2.83;;
22648;SDS011;11491;41.942;24.220;2023-08-07T04:54:26;4.63;;;3.75;;
22648;SDS011;11491;41.942;24.220;2023-08-07T04:56:52;5.28;;;3.13;;
22648;SDS011;11491;41.942;24.220;2023-08-07T04:59:19;4.13;;;3.80;;
22648;SDS011;11491;41.942;24.220;2023-08-07T05:13:52;3.75;;;2.10;;
22648;SDS011;11491;41.942;24.220;2023-08-07T05:22:45;7.72;;;5.30;;
22648;SDS011;11491;41.942;24.220;2023-08-07T05:25:26;10.35;;;7.10;;
22648;SDS011;11491;41.942;24.220;2023-08-07T05:28:39;5.47;;;4.00;;
22648;SDS011;11491;41.942;24.220;2023-08-07T05:31:30;1.92;;;1.50;;
22648;SDS011;11491;41.942;24.220;2023-08-07T05:33:57;1.67;;;1.20;;
22648;SDS011;11491;41.942;24.220;2023-08-07T05:36:24;2.42;;;1.30;;
22648;SDS011;11491;41.942;24.220;2023-08-07T05:38:51;2.05;;;1.40;;
22648;SDS011;11491;41.942;24.220;2023-08-07T05:41:18;3.33;;;1.20;;
22648;SDS011;11491;41.942;24.220;2023-08-07T05:43:45;1.65;;;1.00;;
22648;SDS011;11491;41.942;24.220;2023-08-07T05:46:12;3.72;;;1.30;;
22648;SDS011;11491;41.942;24.220;2023-08-07T05:48:40;2.58;;;1.23;;
22648;SDS011;11491;41.942;24.220;2023-08-07T05:51:07;3.47;;;1.10;;
22648;SDS011;11491;41.942;24.220;2023-08-07T05:53:34;2.42;;;1.20;;
22648;SDS011;11491;41.942;24.220;2023-08-07T05:56:01;1.90;;;1.27;;
22648;SDS011;11491;41.942;24.220;2023-08-07T05:58:28;1.40;;;0.98;;
22648;SDS011;11491;41.942;24.220;2023-08-07T06:00:55;5.30;;;1.25;;
22648;SDS011;11491;41.942;24.220;2023-08-07T06:03:21;1.88;;;1.20;;
22648;SDS011;11491;41.942;24.220;2023-08-07T06:05:49;1.42;;;1.10;;
22648;SDS011;11491;41.942;24.220;2023-08-07T06:08:16;2.80;;;1.02;;
22648;SDS011;11491;41.942;24.220;2023-08-07T06:10:43;1.58;;;1.02;;
22648;SDS011;11491;41.942;24.220;2023-08-07T06:13:10;1.63;;;1.00;;
22648;SDS011;11491;41.942;24.220;2023-08-07T06:15:37;2.47;;;0.90;;
22648;SDS011;11491;41.942;24.220;2023-08-07T06:18:03;1.10;;;1.00;;
22648;SDS011;11491;41.942;24.220;2023-08-07T06:20:30;1.35;;;1.02;;
22648;SDS011;11491;41.942;24.220;2023-08-07T06:22:58;1.77;;;0.85;;
22648;SDS011;11491;41.942;24.220;2023-08-07T06:25:25;1.52;;;1.10;;
22648;SDS011;11491;41.942;24.220;2023-08-07T06:27:52;1.30;;;1.15;;
22648;SDS011;11491;41.942;24.220;2023-08-07T06:30:19;2.97;;;1.00;;
22648;SDS011;11491;41.942;24.220;2023-08-07T06:32:46;1.77;;;1.00;;
22648;SDS011;11491;41.942;24.220;2023-08-07T06:35:13;1.27;;;1.10;;
22648;SDS011;11491;41.942;24.220;2023-08-07T06:37:40;1.42;;;1.20;;
22648;SDS011;11491;41.942;24.220;2023-08-07T06:40:08;1.90;;;1.17;;
22648;SDS011;11491;41.942;24.220;2023-08-07T06:42:36;1.65;;;1.10;;
22648;SDS011;11491;41.942;24.220;2023-08-07T06:45:03;3.05;;;1.15;;
22648;SDS011;11491;41.942;24.220;2023-08-07T06:47:30;1.00;;;0.90;;
22648;SDS011;11491;41.942;24.220;2023-08-07T06:49:57;1.05;;;0.82;;
22648;SDS011;11491;41.942;24.220;2023-08-07T06:52:24;2.90;;;1.20;;
22648;SDS011;11491;41.942;24.220;2023-08-07T06:54:50;1.52;;;1.05;;
22648;SDS011;11491;41.942;24.220;2023-08-07T06:57:18;1.27;;;1.00;;
22648;SDS011;11491;41.942;24.220;2023-08-07T06:59:45;2.13;;;1.00;;
22648;SDS011;11491;41.942;24.220;2023-08-07T07:02:12;1.33;;;1.05;;
22648;SDS011;11491;41.942;24.220;2023-08-07T07:04:39;2.65;;;1.13;;
22648;SDS011;11491;41.942;24.220;2023-08-07T07:07:06;1.10;;;1.00;;
22648;SDS011;11491;41.942;24.220;2023-08-07T07:09:32;1.25;;;1.02;;
22648;SDS011;11491;41.942;24.220;2023-08-07T07:11:59;3.63;;;1.17;;
22648;SDS011;11491;41.942;24.220;2023-08-07T07:14:27;2.50;;;0.98;;
22648;SDS011;11491;41.942;24.220;2023-08-07T07:16:54;1.77;;;1.10;;
22648;SDS011;11491;41.942;24.220;2023-08-07T07:19:21;4.00;;;1.42;;
22648;SDS011;11491;41.942;24.220;2023-08-07T07:21:47;0.95;;;0.90;;
22648;SDS011;11491;41.942;24.220;2023-08-07T07:24:15;1.83;;;1.00;;
22648;SDS011;11491;41.942;24.220;2023-08-07T07:26:41;3.00;;;1.25;;
22648;SDS011;11491;41.942;24.220;2023-08-07T07:29:08;3.45;;;1.33;;
22648;SDS011;11491;41.942;24.220;2023-08-07T07:31:36;0.95;;;0.85;;
22648;SDS011;11491;41.942;24.220;2023-08-07T07:34:03;3.20;;;1.20;;
22648;SDS011;11491;41.942;24.220;2023-08-07T07:36:30;2.63;;;1.10;;
22648;SDS011;11491;41.942;24.220;2023-08-07T07:38:57;2.47;;;1.27;;
22648;SDS011;11491;41.942;24.220;2023-08-07T07:41:23;1.30;;;1.20;;
22648;SDS011;11491;41.942;24.220;2023-08-07T07:43:50;1.73;;;0.90;;
22648;SDS011;11491;41.942;24.220;2023-08-07T07:46:17;1.67;;;1.10;;
22648;SDS011;11491;41.942;24.220;2023-08-07T07:48:45;1.85;;;1.17;;
22648;SDS011;11491;41.942;24.220;2023-08-07T07:51:12;1.88;;;1.23;;
22648;SDS011;11491;41.942;24.220;2023-08-07T07:53:38;2.55;;;1.70;;
22648;SDS011;11491;41.942;24.220;2023-08-07T07:56:05;1.63;;;1.30;;
22648;SDS011;11491;41.942;24.220;2023-08-07T07:58:32;2.35;;;1.08;;
22648;SDS011;11491;41.942;24.220;2023-08-07T08:00:59;1.40;;;1.10;;
22648;SDS011;11491;41.942;24.220;2023-08-07T08:03:25;4.65;;;1.27;;
22648;SDS011;11491;41.942;24.220;2023-08-07T08:05:54;3.53;;;1.27;;
22648;SDS011;11491;41.942;24.220;2023-08-07T08:08:20;5.10;;;1.50;;
22648;SDS011;11491;41.942;24.220;2023-08-07T08:10:47;2.30;;;1.25;;
22648;SDS011;11491;41.942;24.220;2023-08-07T08:13:15;3.30;;;3.00;;
22648;SDS011;11491;41.942;24.220;2023-08-07T08:15:42;2.03;;;1.83;;
22648;SDS011;11491;41.942;24.220;2023-08-07T08:18:09;2.55;;;1.42;;
22648;SDS011;11491;41.942;24.220;2023-08-07T08:20:36;2.75;;;1.83;;
22648;SDS011;11491;41.942;24.220;2023-08-07T08:23:05;3.17;;;1.90;;
22648;SDS011;11491;41.942;24.220;2023-08-07T08:25:31;3.50;;;3.20;;
22648;SDS011;11491;41.942;24.220;2023-08-07T08:27:58;6.65;;;4.05;;
22648;SDS011;11491;41.942;24.220;2023-08-07T08:30:25;6.50;;;1.90;;
22648;SDS011;11491;41.942;24.220;2023-08-07T08:32:52;2.45;;;1.73;;
22648;SDS011;11491;41.942;24.220;2023-08-07T08:35:19;8.48;;;1.98;;
22648;SDS011;11491;41.942;24.220;2023-08-07T08:37:46;2.47;;;2.00;;
22648;SDS011;11491;41.942;24.220;2023-08-07T08:40:14;2.42;;;1.88;;
22648;SDS011;11491;41.942;24.220;2023-08-07T08:42:43;2.75;;;1.58;;
22648;SDS011;11491;41.942;24.220;2023-08-07T08:45:10;9.60;;;1.90;;
22648;SDS011;11491;41.942;24.220;2023-08-07T08:47:39;2.65;;;1.90;;
22648;SDS011;11491;41.942;24.220;2023-08-07T08:50:09;2.35;;;1.80;;
22648;SDS011;11491;41.942;24.220;2023-08-07T08:52:37;1.67;;;1.58;;
22648;SDS011;11491;41.942;24.220;2023-08-07T08:55:07;1.88;;;1.67;;
22648;SDS011;11491;41.942;24.220;2023-08-07T08:57:36;2.15;;;1.75;;
22648;SDS011;11491;41.942;24.220;2023-08-07T09:00:05;3.70;;;2.08;;
22648;SDS011;11491;41.942;24.220;2023-08-07T09:02:42;4.30;;;1.90;;
22648;SDS011;11491;41.942;24.220;2023-08-07T09:05:10;4.53;;;2.10;;
22648;SDS011;11491;41.942;24.220;2023-08-07T09:07:37;2.20;;;1.83;;
22648;SDS011;11491;41.942;24.220;2023-08-07T09:10:04;3.55;;;1.90;;
22648;SDS011;11491;41.942;24.220;2023-08-07T09:12:32;1.95;;;1.58;;
22648;SDS011;11491;41.942;24.220;2023-08-07T09:15:02;2.80;;;1.88;;
22648;SDS011;11491;41.942;24.220;2023-08-07T09:17:31;2.75;;;1.60;;
22648;SDS011;11491;41.942;24.220;2023-08-07T09:20:01;2.22;;;1.80;;
22648;SDS011;11491;41.942;24.220;2023-08-07T09:22:29;1.50;;;1.33;;
22648;SDS011;11491;41.942;24.220;2023-08-07T09:24:56;2.10;;;1.90;;
22648;SDS011;11491;41.942;24.220;2023-08-07T09:27:25;2.97;;;1.52;;
22648;SDS011;11491;41.942;24.220;2023-08-07T09:29:54;2.05;;;1.38;;
22648;SDS011;11491;41.942;24.220;2023-08-07T09:32:22;1.80;;;1.60;;
22648;SDS011;11491;41.942;24.220;2023-08-07T09:34:50;3.22;;;1.60;;
22648;SDS011;11491;41.942;24.220;2023-08-07T09:37:17;1.83;;;1.50;;
22648;SDS011;11491;41.942;24.220;2023-08-07T09:39:44;1.98;;;1.52;;
22648;SDS011;11491;41.942;24.220;2023-08-07T09:42:12;1.90;;;1.63;;
22648;SDS011;11491;41.942;24.220;2023-08-07T09:44:40;2.05;;;1.60;;
22648;SDS011;11491;41.942;24.220;2023-08-07T09:47:14;2.40;;;1.65;;
22648;SDS011;11491;41.942;24.220;2023-08-07T09:52:10;2.25;;;2.03;;
22648;SDS011;11491;41.942;24.220;2023-08-07T09:54:39;2.40;;;1.77;;
22648;SDS011;11491;41.942;24.220;2023-08-07T09:57:06;2.70;;;1.85;;
22648;SDS011;11491;41.942;24.220;2023-08-07T09:59:33;4.68;;;1.45;;
22648;SDS011;11491;41.942;24.220;2023-08-07T10:02:01;2.38;;;2.00;;
22648;SDS011;11491;41.942;24.220;2023-08-07T10:04:29;4.30;;;1.60;;
22648;SDS011;11491;41.942;24.220;2023-08-07T10:06:57;2.10;;;1.60;;
22648;SDS011;11491;41.942;24.220;2023-08-07T10:09:25;2.13;;;1.70;;
22648;SDS011;11491;41.942;24.220;2023-08-07T10:11:53;3.10;;;1.75;;
22648;SDS011;11491;41.942;24.220;2023-08-07T10:14:21;2.45;;;1.70;;
22648;SDS011;11491;41.942;24.220;2023-08-07T10:16:48;1.90;;;1.63;;
22648;SDS011;11491;41.942;24.220;2023-08-07T10:19:16;1.95;;;1.65;;
22648;SDS011;11491;41.942;24.220;2023-08-07T10:21:43;6.32;;;1.60;;
22648;SDS011;11491;41.942;24.220;2023-08-07T10:24:12;2.67;;;1.80;;
22648;SDS011;11491;41.942;24.220;2023-08-07T10:26:43;2.33;;;1.80;;
22648;SDS011;11491;41.942;24.220;2023-08-07T10:29:13;2.65;;;1.60;;
22648;SDS011;11491;41.942;24.220;2023-08-07T10:31:42;2.78;;;1.60;;
22648;SDS011;11491;41.942;24.220;2023-08-07T10:34:11;1.95;;;1.55;;
22648;SDS011;11491;41.942;24.220;2023-08-07T10:36:38;2.40;;;1.55;;
22648;SDS011;11491;41.942;24.220;2023-08-07T10:39:06;3.15;;;1.50;;
22648;SDS011;11491;41.942;24.220;2023-08-07T10:41:39;1.65;;;1.40;;
22648;SDS011;11491;41.942;24.220;2023-08-07T10:44:16;3.90;;;1.50;;
22648;SDS011;11491;41.942;24.220;2023-08-07T10:46:47;5.07;;;1.48;;
22648;SDS011;11491;41.942;24.220;2023-08-07T10:51:58;2.43;;;1.57;;
22648;SDS011;11491;41.942;24.220;2023-08-07T10:54:25;1.40;;;1.27;;
22648;SDS011;11491;41.942;24.220;2023-08-07T10:56:53;3.88;;;1.58;;
22648;SDS011;11491;41.942;24.220;2023-08-07T10:59:21;2.25;;;1.67;;
22648;SDS011;11491;41.942;24.220;2023-08-07T11:01:50;1.90;;;1.70;;
22648;SDS011;11491;41.942;24.220;2023-08-07T11:04:18;1.90;;;1.70;;
22648;SDS011;11491;41.942;24.220;2023-08-07T11:06:46;1.85;;;1.75;;
22648;SDS011;11491;41.942;24.220;2023-08-07T11:09:14;2.63;;;1.77;;
22648;SDS011;11491;41.942;24.220;2023-08-07T11:11:41;2.42;;;1.90;;
22648;SDS011;11491;41.942;24.220;2023-08-07T11:14:11;1.92;;;1.70;;
22648;SDS011;11491;41.942;24.220;2023-08-07T11:16:39;4.50;;;1.60;;
22648;SDS011;11491;41.942;24.220;2023-08-07T11:19:06;1.88;;;1.50;;
22648;SDS011;11491;41.942;24.220;2023-08-07T11:21:34;2.15;;;1.67;;
22648;SDS011;11491;41.942;24.220;2023-08-07T11:24:02;3.67;;;1.60;;
22648;SDS011;11491;41.942;24.220;2023-08-07T11:26:29;5.72;;;3.97;;
22648;SDS011;11491;41.942;24.220;2023-08-07T11:28:56;3.42;;;1.63;;
22648;SDS011;11491;41.942;24.220;2023-08-07T11:31:27;1.80;;;1.60;;
22648;SDS011;11491;41.942;24.220;2023-08-07T11:33:54;1.60;;;1.50;;
22648;SDS011;11491;41.942;24.220;2023-08-07T11:36:22;2.35;;;1.50;;
22648;SDS011;11491;41.942;24.220;2023-08-07T11:38:50;1.75;;;1.40;;
22648;SDS011;11491;41.942;24.220;2023-08-07T11:41:17;2.47;;;1.80;;
22648;SDS011;11491;41.942;24.220;2023-08-07T11:43:44;2.42;;;1.60;;
22648;SDS011;11491;41.942;24.220;2023-08-07T11:46:13;1.95;;;1.75;;
22648;SDS011;11491;41.942;24.220;2023-08-07T11:48:42;2.97;;;1.85;;
22648;SDS011;11491;41.942;24.220;2023-08-07T11:51:10;4.97;;;1.42;;
22648;SDS011;11491;41.942;24.220;2023-08-07T11:53:38;2.05;;;1.50;;
22648;SDS011;11491;41.942;24.220;2023-08-07T11:56:06;2.58;;;1.70;;
22648;SDS011;11491;41.942;24.220;2023-08-07T11:58:35;1.58;;;1.48;;
22648;SDS011;11491;41.942;24.220;2023-08-07T12:01:06;2.08;;;1.50;;
22648;SDS011;11491;41.942;24.220;2023-08-07T12:03:36;2.78;;;1.90;;
22648;SDS011;11491;41.942;24.220;2023-08-07T12:06:05;2.17;;;1.58;;
22648;SDS011;11491;41.942;24.220;2023-08-07T12:08:34;2.72;;;1.60;;
22648;SDS011;11491;41.942;24.220;2023-08-07T12:11:03;4.07;;;1.80;;
22648;SDS011;11491;41.942;24.220;2023-08-07T12:13:30;1.60;;;1.50;;
22648;SDS011;11491;41.942;24.220;2023-08-07T12:16:00;2.63;;;1.40;;
22648;SDS011;11491;41.942;24.220;2023-08-07T12:18:27;3.40;;;1.35;;
22648;SDS011;11491;41.942;24.220;2023-08-07T12:20:59;1.90;;;1.40;;
22648;SDS011;11491;41.942;24.220;2023-08-07T12:23:29;2.53;;;1.85;;
22648;SDS011;11491;41.942;24.220;2023-08-07T12:25:58;2.95;;;2.10;;
22648;SDS011;11491;41.942;24.220;2023-08-07T12:28:25;1.52;;;1.35;;
22648;SDS011;11491;41.942;24.220;2023-08-07T12:30:52;3.17;;;1.23;;
22648;SDS011;11491;41.942;24.220;2023-08-07T12:33:18;1.88;;;1.40;;
22648;SDS011;11491;41.942;24.220;2023-08-07T12:35:45;1.30;;;1.20;;
22648;SDS011;11491;41.942;24.220;2023-08-07T12:38:12;3.08;;;1.38;;
22648;SDS011;11491;41.942;24.220;2023-08-07T12:40:41;1.45;;;1.35;;
22648;SDS011;11491;41.942;24.220;2023-08-07T12:43:08;2.45;;;1.52;;
22648;SDS011;11491;41.942;24.220;2023-08-07T12:45:35;2.25;;;1.27;;
22648;SDS011;11491;41.942;24.220;2023-08-07T12:48:02;2.45;;;1.30;;
22648;SDS011;11491;41.942;24.220;2023-08-07T12:50:29;2.13;;;1.25;;
22648;SDS011;11491;41.942;24.220;2023-08-07T12:52:56;2.70;;;1.40;;
22648;SDS011;11491;41.942;24.220;2023-08-07T12:55:23;2.38;;;1.40;;
22648;SDS011;11491;41.942;24.220;2023-08-07T12:57:53;2.40;;;1.38;;
22648;SDS011;11491;41.942;24.220;2023-08-07T13:00:20;2.80;;;1.40;;
22648;SDS011;11491;41.942;24.220;2023-08-07T13:02:49;2.58;;;1.48;;
22648;SDS011;11491;41.942;24.220;2023-08-07T13:05:17;2.97;;;1.40;;
22648;SDS011;11491;41.942;24.220;2023-08-07T13:07:44;2.97;;;1.48;;
22648;SDS011;11491;41.942;24.220;2023-08-07T13:10:12;1.73;;;1.20;;
22648;SDS011;11491;41.942;24.220;2023-08-07T13:12:41;5.38;;;1.70;;
22648;SDS011;11491;41.942;24.220;2023-08-07T13:15:20;8.98;;;1.77;;
22648;SDS011;11491;41.942;24.220;2023-08-07T13:17:46;2.30;;;1.20;;
22648;SDS011;11491;41.942;24.220;2023-08-07T13:20:13;1.85;;;1.20;;
22648;SDS011;11491;41.942;24.220;2023-08-07T13:22:40;2.05;;;1.30;;
22648;SDS011;11491;41.942;24.220;2023-08-07T13:25:08;2.15;;;1.25;;
22648;SDS011;11491;41.942;24.220;2023-08-07T13:27:36;1.75;;;1.25;;
22648;SDS011;11491;41.942;24.220;2023-08-07T13:30:04;3.65;;;1.30;;
22648;SDS011;11491;41.942;24.220;2023-08-07T13:32:33;2.72;;;1.20;;
22648;SDS011;11491;41.942;24.220;2023-08-07T13:35:00;2.03;;;1.27;;
22648;SDS011;11491;41.942;24.220;2023-08-07T13:37:28;1.48;;;1.13;;
22648;SDS011;11491;41.942;24.220;2023-08-07T13:39:55;2.72;;;1.42;;
22648;SDS011;11491;41.942;24.220;2023-08-07T13:42:23;2.25;;;1.35;;
22648;SDS011;11491;41.942;24.220;2023-08-07T13:44:50;1.30;;;1.20;;
22648;SDS011;11491;41.942;24.220;2023-08-07T13:47:17;4.22;;;1.10;;
22648;SDS011;11491;41.942;24.220;2023-08-07T13:49:46;2.92;;;1.10;;
22648;SDS011;11491;41.942;24.220;2023-08-07T13:52:13;2.78;;;1.40;;
22648;SDS011;11491;41.942;24.220;2023-08-07T13:54:40;1.55;;;1.02;;
22648;SDS011;11491;41.942;24.220;2023-08-07T13:57:07;1.88;;;1.60;;
22648;SDS011;11491;41.942;24.220;2023-08-07T13:59:34;1.92;;;1.20;;
22648;SDS011;11491;41.942;24.220;2023-08-07T14:02:00;3.33;;;1.13;;
22648;SDS011;11491;41.942;24.220;2023-08-07T14:04:27;1.63;;;1.17;;
22648;SDS011;11491;41.942;24.220;2023-08-07T14:06:55;1.73;;;1.30;;
22648;SDS011;11491;41.942;24.220;2023-08-07T14:09:23;3.30;;;1.50;;
22648;SDS011;11491;41.942;24.220;2023-08-07T14:11:50;1.90;;;1.27;;
22648;SDS011;11491;41.942;24.220;2023-08-07T14:14:17;2.78;;;1.40;;
22648;SDS011;11491;41.942;24.220;2023-08-07T14:16:44;3.35;;;1.40;;
22648;SDS011;11491;41.942;24.220;2023-08-07T14:19:10;1.70;;;1.40;;
22648;SDS011;11491;41.942;24.220;2023-08-07T14:21:38;4.10;;;2.20;;
22648;SDS011;11491;41.942;24.220;2023-08-07T14:24:06;2.38;;;1.50;;
22648;SDS011;11491;41.942;24.220;2023-08-07T14:26:33;5.32;;;2.58;;
22648;SDS011;11491;41.942;24.220;2023-08-07T14:29:00;1.67;;;1.20;;
22648;SDS011;11491;41.942;24.220;2023-08-07T14:31:27;1.48;;;1.13;;
22648;SDS011;11491;41.942;24.220;2023-08-07T14:33:53;3.83;;;1.58;;
22648;SDS011;11491;41.942;24.220;2023-08-07T14:36:21;10.30;;;1.85;;
22648;SDS011;11491;41.942;24.220;2023-08-07T14:38:48;38.90;;;5.25;;
22648;SDS011;11491;41.942;24.220;2023-08-07T14:41:16;33.78;;;4.43;;
22648;SDS011;11491;41.942;24.220;2023-08-07T14:43:43;2.40;;;1.48;;
22648;SDS011;11491;41.942;24.220;2023-08-07T14:46:10;3.70;;;1.67;;
22648;SDS011;11491;41.942;24.220;2023-08-07T14:48:37;2.55;;;1.60;;
22648;SDS011;11491;41.942;24.220;2023-08-07T14:51:04;1.90;;;1.50;;
22648;SDS011;11491;41.942;24.220;2023-08-07T14:53:31;5.03;;;1.60;;
22648;SDS011;11491;41.942;24.220;2023-08-07T14:55:58;3.72;;;2.42;;
22648;SDS011;11491;41.942;24.220;2023-08-07T14:58:26;5.18;;;1.58;;
22648;SDS011;11491;41.942;24.220;2023-08-07T15:00:53;4.53;;;1.40;;